Dawson Community Airport
KGDV : now visible

Airfield :











YOU CAN JOIN US ON...

 
LOGIN :

Register | Disclaimer

   EN    FR    IT 

 









Legend :    VFR   Marginal VFR   IFR   Intensive IFR   Very Intensive IFR
Visi :
Ceiling :
>= 8 km
>= 3000ft
5 to 8 km
1000 to 3000 ft
1500m to 5 km
500 to 1000 ft
800 to 1500m
200 to 500 ft
< 800m
< 200 ft
Symbols :   Thunderstorms  Fog  Heavy snow  Heavy precipitations  Wind > 20 kt






- Airport Elevation : 2458 ft


KGDV - Dawson Community

CURRENT METAR :
  • 042256Z AUTO 31009G19KT 270V330 10SM FEW090 31/09 A2998 RMK AO2 SLP132 T03060094

EXPIRED METARs :
  • 042156Z AUTO 31007G14KT 270V340 10SM FEW120 30/10 A2999 RMK AO2 SLP135 T03000100
  • 042056Z AUTO 31008KT 10SM OVC120 29/11 A3001 RMK AO2 SLP140 60000 T02940106 58001

TAF KGDV
Valid from the 04 at 18:00 until the 05 at 18:00 UTC


041724Z 0418/0518 VRB05KT P6SM VCSH SCT060
FM042200 33010G18KT P6SM FEW150
FM050100 33011KT P6SM FEW200
KZLC FIR / North America



MET'MAP, your aeronautical weather chart ! - Copyright ORBIFLY December 2007 - Disclaimer

ORBIFLY MET'MAP TEAM :

Programming & Development : Alexandra Zaïnal
Concept & original design : Baudouin d'Aumeries
Assistance for programming : Marc-Olivier Méhu
Technical & hardware support : Manuel Goepfert

Contact : metmap@orbifly.com




SOURCES & CREDITS :

   NOAA       Earth
Advisory